Biloxi, MS

5:25 PM CST on December 20, 2014 (GMT -0600)
Espana Woods /Gulf Hills | Change Station
CLOSE
Current Station
Personal Weather Station
Location: Ocean Springs, MS
Elevation: 26 ft
Nearby Weather Stations

Elev 26 ft 30.44 °N, 88.83 °W | Updated 3 seconds ago

Overcast
Overcast
53.2 °F
Feels Like 53.2 °F
N
5.4
Wind Variable Wind from South
Gusts 5.4 mph

Today
High -- | Low -- °F
--% Chance of Precip.
Yesterday
High -- | Low -- °F
Precip. -- in
6:47 AM 4:58 PM
Waning Crescent, 2% visible
Pressure 30.13 in
Visibility 10.0 miles
Clouds Overcast 1100 ft
Dew Point 46 °F
Humidity 75%
Rainfall 0.00 in
Snow Depth Not available.
UV 0 out of 12
Pollen 2.00 out of 12
Air Quality Not available.
Flu Activity Not available.
METAR KBIX 202258Z AUTO 03008KT 10SM OVC011 11/09 A3012 RMK AO2 SLP203 T01080093

More Conditions Fewer Conditions

Pressure 30.13 in
Visibility 10.0 miles
Clouds Overcast 1100 ft
Dew Point 46 °F
Humidity 75%
Rainfall 0.00 in
Snow Depth Not available.
UV 0 out of 12
Pollen 2.00 out of 12
Air Quality Not available.
Flu Activity Not available.
METAR KBIX 202258Z AUTO 03008KT 10SM OVC011 11/09 A3012 RMK AO2 SLP203 T01080093

More Conditions Fewer Conditions

10-Day Weather Forecast

Almanac

Astronomy

Dec. 20, 2014 Rise Set
Actual Time
Civil Twilight
Nautical Twilight
Astronomical Twilight
Moon
Length of Visible Light
Length of Day
Tomorrow will be .
, % of the Moon is Illuminated

Today's Extremes

State Highs State Lows

Community

WunderPhotos

Upload Photos

1,779,309 photos uploaded!

WunderBlogs® & News

Nearby

Air Quality

  Air Quality AQ Index Pollutant
Not available.

Snow Depth

Station Depth Elevation

Earthquake Activity

City Distance Mag. Time & Date
Minimum magnitude displayed is 2.5.

Coastal Water Temperatures

Place Temperature

Nearby Weather Stations